createdAt,value
2022-10-23T00:02:07.843Z,10.50
2022-10-23T00:06:32.292Z,10.40
2022-10-23T00:10:54.299Z,10.30
2022-10-23T00:15:19.824Z,10.20
2022-10-23T00:19:41.682Z,10.10
2022-10-23T00:24:04.867Z,10.10
2022-10-23T00:28:27.258Z,10.00
2022-10-23T00:32:49.617Z,9.90
2022-10-23T00:37:11.703Z,9.80
2022-10-23T00:41:34.470Z,9.80
2022-10-23T00:45:57.443Z,9.90
2022-10-23T00:50:21.532Z,9.80
2022-10-23T00:54:44.647Z,9.80
2022-10-23T00:59:07.092Z,9.70
2022-10-23T01:03:29.764Z,9.70
2022-10-23T01:08:02.108Z,9.70
2022-10-23T01:13:12.726Z,9.70
2022-10-23T01:17:57.270Z,9.70
2022-10-23T01:22:47.003Z,9.70
2022-10-23T01:27:33.621Z,9.70
2022-10-23T01:31:59.194Z,9.70
2022-10-23T01:36:25.314Z,9.70
2022-10-23T01:41:14.614Z,9.70
2022-10-23T01:45:41.726Z,9.60
2022-10-23T01:50:10.929Z,9.50
2022-10-23T01:54:42.242Z,9.50
2022-10-23T01:59:14.683Z,9.60
2022-10-23T02:03:39.379Z,9.60
2022-10-23T02:08:01.729Z,9.60
2022-10-23T02:12:49.625Z,9.50
2022-10-23T02:17:21.519Z,9.50
2022-10-23T02:21:54.096Z,9.50
2022-10-23T02:26:29.457Z,9.50
2022-10-23T02:30:52.372Z,9.40
2022-10-23T02:35:18.007Z,9.30
2022-10-23T02:39:40.555Z,9.30
2022-10-23T02:44:40.847Z,9.20
2022-10-23T02:49:34.631Z,9.20
2022-10-23T02:54:47.785Z,9.20
2022-10-23T02:59:31.948Z,9.10
2022-10-23T03:04:02.899Z,9.10
2022-10-23T03:08:26.400Z,9.00
2022-10-23T03:12:49.060Z,8.90
2022-10-23T03:17:11.529Z,8.90
2022-10-23T03:21:33.213Z,8.90
2022-10-23T03:25:56.892Z,8.80
2022-10-23T03:30:28.550Z,8.70
2022-10-23T03:34:50.552Z,8.80
2022-10-23T03:39:12.722Z,8.80
2022-10-23T03:43:34.854Z,8.80
2022-10-23T03:47:57.448Z,8.80
2022-10-23T03:52:19.332Z,8.80
2022-10-23T03:56:41.330Z,8.70
2022-10-23T04:01:03.810Z,8.60
2022-10-23T04:05:26.094Z,8.50
2022-10-23T04:09:50.765Z,8.60
2022-10-23T04:14:14.381Z,8.60
2022-10-23T04:18:36.171Z,8.50
2022-10-23T04:22:58.293Z,8.50
2022-10-23T04:27:20.311Z,8.50
2022-10-23T04:31:42.284Z,8.50
2022-10-23T04:36:05.276Z,8.50
2022-10-23T04:40:27.865Z,8.50
2022-10-23T04:44:49.779Z,8.40
2022-10-23T04:49:11.935Z,8.30
2022-10-23T04:53:45.409Z,8.30
2022-10-23T04:58:19.182Z,8.20
2022-10-23T05:02:41.847Z,8.20
2022-10-23T05:07:04.937Z,8.10
2022-10-23T05:11:52.728Z,8.00
2022-10-23T05:16:37.818Z,7.90
2022-10-23T05:21:26.013Z,7.90
2022-10-23T05:25:47.982Z,7.90
2022-10-23T05:30:13.332Z,7.90
2022-10-23T05:34:36.668Z,7.90
2022-10-23T05:38:59.237Z,7.70
2022-10-23T05:43:21.916Z,7.60
2022-10-23T05:47:49.280Z,7.60
2022-10-23T05:52:31.535Z,7.60
2022-10-23T05:57:12.377Z,7.60
2022-10-23T06:01:44.457Z,7.70
2022-10-23T06:06:10.943Z,7.90
2022-10-23T06:10:40.321Z,8.00
2022-10-23T06:15:05.265Z,8.30
2022-10-23T06:19:51.772Z,9.20
2022-10-23T06:24:14.027Z,9.70
2022-10-23T06:28:42.010Z,10.00
2022-10-23T06:33:05.930Z,10.40
2022-10-23T06:37:28.702Z,11.80
2022-10-23T06:42:00.224Z,15.00
2022-10-23T06:46:47.245Z,17.30
2022-10-23T06:51:29.817Z,20.10
2022-10-23T06:55:55.297Z,22.70
2022-10-23T07:00:18.080Z,24.90
2022-10-23T07:04:46.892Z,26.50
2022-10-23T07:09:14.496Z,27.70
2022-10-23T07:13:48.541Z,28.60
2022-10-23T07:18:14.722Z,29.60
2022-10-23T07:22:57.520Z,30.70
2022-10-23T07:27:23.382Z,31.10
2022-10-23T07:31:50.591Z,29.70
2022-10-23T07:36:31.810Z,29.30
2022-10-23T07:40:54.319Z,28.90
2022-10-23T07:45:16.632Z,28.80
2022-10-23T07:49:39.677Z,28.60
2022-10-23T07:54:01.782Z,28.50
2022-10-23T07:58:50.877Z,28.20
2022-10-23T08:03:13.372Z,27.20
2022-10-23T08:07:35.772Z,27.50
2022-10-23T08:11:57.879Z,27.50
2022-10-23T08:16:24.897Z,28.00
2022-10-23T08:21:04.186Z,29.60
2022-10-23T08:25:27.587Z,31.90
2022-10-23T08:29:49.859Z,32.20
2022-10-23T08:34:12.142Z,31.90
2022-10-23T08:38:35.618Z,32.00
2022-10-23T08:43:20.433Z,31.70
2022-10-23T08:48:05.100Z,30.70
2022-10-23T08:52:46.865Z,27.90
2022-10-23T08:57:16.257Z,26.70
2022-10-23T09:01:43.103Z,26.90
2022-10-23T09:06:46.202Z,27.00
2022-10-23T09:11:33.949Z,27.50
2022-10-23T09:16:23.161Z,26.40
2022-10-23T09:20:46.792Z,24.40
2022-10-23T09:25:22.627Z,23.70
2022-10-23T09:29:51.833Z,22.90
2022-10-23T09:34:23.811Z,22.80
2022-10-23T09:38:45.554Z,23.10
2022-10-23T09:43:17.811Z,23.20
2022-10-23T09:47:39.776Z,23.10
2022-10-23T09:52:10.736Z,23.80
2022-10-23T09:56:41.867Z,25.30
2022-10-23T10:01:04.642Z,26.40
2022-10-23T10:05:42.347Z,27.40
2022-10-23T10:10:15.641Z,26.60
2022-10-23T10:15:01.200Z,26.80
2022-10-23T10:20:18.873Z,28.00
2022-10-23T10:25:12.518Z,28.50
2022-10-23T10:30:00.290Z,30.30
2022-10-23T10:34:51.338Z,32.00
2022-10-23T10:39:49.875Z,31.30
2022-10-23T10:44:15.942Z,30.90
2022-10-23T10:48:57.790Z,30.90
2022-10-23T10:53:47.309Z,28.80
2022-10-23T10:58:46.222Z,26.90
2022-10-23T11:03:52.224Z,25.50
2022-10-23T11:08:28.098Z,24.80
2022-10-23T11:12:51.155Z,24.10
2022-10-23T11:17:39.307Z,23.70
2022-10-23T11:22:30.552Z,23.40
2022-10-23T11:27:10.404Z,23.30
2022-10-23T11:32:14.266Z,22.90
2022-10-23T11:36:54.354Z,22.70
2022-10-23T11:41:27.212Z,22.60
2022-10-23T11:45:50.640Z,22.30
2022-10-23T11:50:24.908Z,22.10
2022-10-23T11:54:46.867Z,22.20
2022-10-23T11:59:26.608Z,22.30
2022-10-23T12:04:02.461Z,22.20
2022-10-23T12:08:29.436Z,21.70
2022-10-23T12:13:04.350Z,21.80
2022-10-23T12:17:29.984Z,21.50
2022-10-23T12:22:00.878Z,21.20
2022-10-23T12:27:01.838Z,21.00
2022-10-23T12:31:49.224Z,20.90
2022-10-23T12:36:34.908Z,20.80
2022-10-23T12:41:25.446Z,20.60
2022-10-23T12:45:47.530Z,20.60
2022-10-23T12:50:24.964Z,20.50
2022-10-23T12:54:47.556Z,20.30
2022-10-23T12:59:17.225Z,20.00
2022-10-23T13:03:39.377Z,19.90
2022-10-23T13:08:02.606Z,19.90
2022-10-23T13:12:40.534Z,19.90
2022-10-23T13:17:10.192Z,19.80
2022-10-23T13:21:33.070Z,19.70
2022-10-23T13:25:56.904Z,19.50
2022-10-23T13:30:39.460Z,19.30
2022-10-23T13:35:20.416Z,19.20
2022-10-23T13:39:43.586Z,19.10
2022-10-23T13:44:05.638Z,19.10
2022-10-23T13:48:28.839Z,18.90
2022-10-23T13:52:50.704Z,18.90
2022-10-23T13:57:15.703Z,18.90
2022-10-23T14:01:37.801Z,18.70
2022-10-23T14:06:00.509Z,18.60
2022-10-23T14:10:25.638Z,18.60
2022-10-23T14:14:53.835Z,18.50
2022-10-23T14:19:15.588Z,18.50
2022-10-23T14:23:37.671Z,18.40
2022-10-23T14:27:59.512Z,18.30
2022-10-23T14:32:21.528Z,18.20
2022-10-23T14:36:49.853Z,18.20
2022-10-23T14:41:16.347Z,18.00
2022-10-23T14:45:37.946Z,17.90
2022-10-23T14:49:59.803Z,17.80
2022-10-23T14:54:21.894Z,17.70
2022-10-23T14:58:44.002Z,17.60
2022-10-23T15:03:06.068Z,17.50
2022-10-23T15:07:27.972Z,17.40
2022-10-23T15:11:49.994Z,17.30
2022-10-23T15:16:12.862Z,17.20
2022-10-23T15:20:36.007Z,17.10
2022-10-23T15:24:57.870Z,17.00
2022-10-23T15:29:20.507Z,16.90
2022-10-23T15:33:42.923Z,16.90
2022-10-23T15:38:05.206Z,16.80
2022-10-23T15:42:27.106Z,16.70
2022-10-23T15:46:49.593Z,16.60
2022-10-23T15:51:11.761Z,16.50
2022-10-23T15:55:33.804Z,16.40
2022-10-23T15:59:55.956Z,16.40
2022-10-23T16:04:18.319Z,16.30
2022-10-23T16:08:41.166Z,16.20
2022-10-23T16:13:02.997Z,16.10
2022-10-23T16:17:25.176Z,16.10
2022-10-23T16:21:46.862Z,16.10
2022-10-23T16:26:08.858Z,16.00
2022-10-23T16:30:31.122Z,16.10
2022-10-23T16:34:52.912Z,16.00
2022-10-23T16:39:18.769Z,16.00
2022-10-23T16:43:59.345Z,15.90
2022-10-23T16:48:35.272Z,15.90
2022-10-23T16:52:57.251Z,15.90
2022-10-23T16:57:19.326Z,15.80
2022-10-23T17:01:41.785Z,15.80
2022-10-23T17:06:11.613Z,15.70
2022-10-23T17:10:34.066Z,15.60
2022-10-23T17:14:56.208Z,15.50
2022-10-23T17:24:04.528Z,15.60
2022-10-23T17:28:26.911Z,15.60
2022-10-23T17:32:49.339Z,15.50
2022-10-23T17:37:13.332Z,15.50
2022-10-23T17:41:35.720Z,15.40
2022-10-23T17:45:57.842Z,15.30
2022-10-23T17:50:19.993Z,15.30
2022-10-23T17:54:42.309Z,15.20
2022-10-23T17:59:17.478Z,15.20
2022-10-23T18:03:40.531Z,15.30
2022-10-23T18:08:02.579Z,15.40
2022-10-23T18:12:24.584Z,15.40
2022-10-23T18:16:47.022Z,15.40
2022-10-23T18:21:09.955Z,15.50
2022-10-23T18:25:31.753Z,15.50
2022-10-23T18:29:54.157Z,15.40
2022-10-23T18:34:23.402Z,15.30
2022-10-23T18:38:45.619Z,15.20
2022-10-23T18:43:14.759Z,15.20
2022-10-23T18:47:36.911Z,15.20
2022-10-23T18:51:58.746Z,15.20
2022-10-23T18:56:24.452Z,15.20
2022-10-23T19:00:46.723Z,15.40
2022-10-23T19:05:09.245Z,15.50
2022-10-23T19:09:31.290Z,15.50
2022-10-23T19:13:54.030Z,15.50
2022-10-23T19:18:15.674Z,15.50
2022-10-23T19:22:41.072Z,15.50
2022-10-23T19:27:04.337Z,15.50
2022-10-23T19:31:27.254Z,15.60
2022-10-23T19:35:49.056Z,15.60
2022-10-23T19:40:13.348Z,15.60
2022-10-23T19:44:35.574Z,15.70
2022-10-23T19:48:57.488Z,15.70
2022-10-23T19:53:19.686Z,15.60
2022-10-23T19:57:41.663Z,15.70
2022-10-23T20:02:04.006Z,15.70
2022-10-23T20:06:34.634Z,15.70
2022-10-23T20:15:23.635Z,15.70
2022-10-23T20:19:45.279Z,15.80
2022-10-23T20:24:08.944Z,15.80
2022-10-23T20:28:31.189Z,15.80
2022-10-23T20:32:53.119Z,15.80
2022-10-23T20:37:14.560Z,15.70
2022-10-23T20:41:37.402Z,15.70
2022-10-23T20:46:07.848Z,15.80
2022-10-23T20:50:29.620Z,15.80
2022-10-23T20:54:51.565Z,15.80
2022-10-23T20:59:17.011Z,15.80
2022-10-23T21:03:39.055Z,15.70
2022-10-23T21:08:00.678Z,15.50
2022-10-23T21:12:22.730Z,15.20
2022-10-23T21:16:46.574Z,14.90
2022-10-23T21:21:12.399Z,14.50
2022-10-23T21:25:37.509Z,14.20
2022-10-23T21:29:59.391Z,14.10
2022-10-23T21:34:22.113Z,14.00
2022-10-23T21:38:46.134Z,14.00
2022-10-23T21:43:10.788Z,13.90
2022-10-23T21:47:34.298Z,13.80
2022-10-23T21:51:56.065Z,13.80
2022-10-23T21:56:36.526Z,13.80
2022-10-23T22:00:58.645Z,13.70
2022-10-23T22:05:20.297Z,13.60
2022-10-23T22:09:42.970Z,13.60
2022-10-23T22:14:04.610Z,13.60
2022-10-23T22:18:26.595Z,13.60
2022-10-23T22:22:48.701Z,13.60
2022-10-23T22:27:10.537Z,13.70
2022-10-23T22:31:35.153Z,13.60
2022-10-23T22:36:04.063Z,13.60
2022-10-23T22:40:26.097Z,13.60
2022-10-23T22:44:48.139Z,13.50
2022-10-23T22:49:10.190Z,13.50
2022-10-23T22:53:33.339Z,13.50
2022-10-23T22:57:55.328Z,13.40
2022-10-23T23:02:17.430Z,13.30
2022-10-23T23:06:39.671Z,13.10
2022-10-23T23:11:02.161Z,13.00
2022-10-23T23:15:23.995Z,12.90
2022-10-23T23:19:45.913Z,12.90
2022-10-23T23:24:07.917Z,12.80
2022-10-23T23:28:29.764Z,12.60
2022-10-23T23:32:52.898Z,12.60
2022-10-23T23:37:14.943Z,12.60
2022-10-23T23:41:37.596Z,12.80
2022-10-23T23:46:00.060Z,13.10
2022-10-23T23:50:22.253Z,13.50
2022-10-23T23:54:43.958Z,13.90
2022-10-23T23:59:06.246Z,14.30
